createdAt,value
2019-06-20T00:00:10.626Z,6.75
2019-06-20T00:02:36.561Z,6.25
2019-06-20T00:05:04.101Z,4.45
2019-06-20T00:07:30.077Z,7.50
2019-06-20T00:09:56.279Z,5.05
2019-06-20T00:12:22.123Z,4.70
2019-06-20T00:14:48.117Z,5.62
2019-06-20T00:17:14.064Z,3.17
2019-06-20T00:19:40.432Z,6.83
2019-06-20T00:22:06.658Z,4.53
2019-06-20T00:24:33.089Z,5.00
2019-06-20T00:26:58.924Z,12.70
2019-06-20T00:29:24.931Z,5.50
2019-06-20T00:31:51.169Z,4.37
2019-06-20T00:34:17.018Z,6.35
2019-06-20T00:36:43.041Z,7.17
2019-06-20T00:39:08.972Z,4.80
2019-06-20T00:41:35.002Z,8.30
2019-06-20T00:44:01.263Z,8.65
2019-06-20T00:46:27.083Z,5.35
2019-06-20T00:48:53.017Z,3.65
2019-06-20T00:51:19.010Z,6.25
2019-06-20T00:53:45.457Z,5.95
2019-06-20T00:56:11.649Z,4.45
2019-06-20T00:58:37.661Z,7.37
2019-06-20T01:01:04.127Z,5.28
2019-06-20T01:03:29.975Z,6.60
2019-06-20T01:05:55.858Z,5.97
2019-06-20T01:08:22.258Z,4.40
2019-06-20T01:10:48.394Z,6.83
2019-06-20T01:13:14.649Z,4.80
2019-06-20T01:15:40.616Z,7.62
2019-06-20T01:18:07.143Z,6.12
2019-06-20T01:20:33.058Z,8.35
2019-06-20T01:22:59.603Z,6.08
2019-06-20T01:25:27.873Z,12.75
2019-06-20T01:27:53.879Z,9.15
2019-06-20T01:30:19.724Z,5.22
2019-06-20T01:32:46.153Z,5.40
2019-06-20T01:35:12.436Z,9.68
2019-06-20T01:37:38.526Z,7.00
2019-06-20T01:40:04.930Z,8.15
2019-06-20T01:42:30.916Z,6.30
2019-06-20T01:44:56.762Z,4.90
2019-06-20T01:47:22.682Z,8.13
2019-06-20T01:49:48.995Z,15.75
2019-06-20T01:52:15.224Z,9.55
2019-06-20T01:54:41.450Z,8.55
2019-06-20T01:57:07.338Z,12.00
2019-06-20T01:59:33.273Z,11.60
2019-06-20T02:01:59.232Z,10.65
2019-06-20T02:04:25.232Z,11.28
2019-06-20T02:06:51.424Z,6.75
2019-06-20T02:09:17.690Z,10.85
2019-06-20T02:11:43.674Z,10.68
2019-06-20T02:14:09.914Z,11.80
2019-06-20T02:16:35.728Z,8.70
2019-06-20T02:19:02.378Z,9.10
2019-06-20T02:21:28.203Z,11.80
2019-06-20T02:23:54.138Z,13.40
2019-06-20T02:26:20.542Z,16.30
2019-06-20T02:28:46.478Z,8.85
2019-06-20T02:31:12.316Z,14.33
2019-06-20T02:33:38.298Z,13.75
2019-06-20T02:36:04.224Z,9.95
2019-06-20T02:38:30.169Z,11.95
2019-06-20T02:40:56.300Z,16.30
2019-06-20T02:43:22.181Z,11.22
2019-06-20T02:45:48.127Z,15.08
2019-06-20T02:48:14.310Z,17.42
2019-06-20T02:50:40.538Z,18.00
2019-06-20T02:53:06.800Z,21.42
2019-06-20T02:55:33.437Z,17.82
2019-06-20T02:57:59.290Z,19.23
2019-06-20T03:00:39.240Z,22.62
2019-06-20T03:03:05.654Z,23.35
2019-06-20T03:05:31.395Z,21.02
2019-06-20T03:07:57.271Z,20.92
2019-06-20T03:10:23.278Z,24.05
2019-06-20T03:12:49.117Z,22.20
2019-06-20T03:15:15.356Z,27.98
2019-06-20T03:17:41.557Z,28.10
2019-06-20T03:20:08.958Z,28.30
2019-06-20T03:22:34.845Z,29.65
2019-06-20T03:25:00.694Z,26.95
2019-06-20T03:27:26.630Z,31.95
2019-06-20T03:29:52.627Z,28.55
2019-06-20T03:32:18.559Z,37.50
2019-06-20T03:34:44.480Z,30.52
2019-06-20T03:37:10.478Z,30.02
2019-06-20T03:39:36.775Z,34.08
2019-06-20T03:42:02.723Z,31.82
2019-06-20T03:44:29.106Z,35.63
2019-06-20T03:46:55.198Z,32.13
2019-06-20T03:49:21.413Z,28.42
2019-06-20T03:51:47.412Z,33.63
2019-06-20T03:54:14.050Z,29.00
2019-06-20T03:56:39.895Z,30.65
2019-06-20T03:59:06.507Z,28.95
2019-06-20T04:01:32.444Z,32.88
2019-06-20T04:03:58.410Z,32.28
2019-06-20T04:06:24.422Z,32.30
2019-06-20T04:08:50.613Z,30.90
2019-06-20T04:11:16.452Z,33.70
2019-06-20T04:13:42.569Z,32.75
2019-06-20T04:16:08.901Z,30.95
2019-06-20T04:18:35.117Z,27.62
2019-06-20T04:21:01.010Z,29.45
2019-06-20T04:23:27.574Z,26.20
2019-06-20T04:25:53.706Z,30.02
2019-06-20T04:28:20.030Z,31.37
2019-06-20T04:30:45.876Z,33.40
2019-06-20T04:33:13.309Z,30.43
2019-06-20T04:35:39.557Z,29.92
2019-06-20T04:38:05.675Z,29.63
2019-06-20T04:40:31.506Z,27.62
2019-06-20T04:42:57.483Z,34.05
2019-06-20T04:45:42.312Z,38.20
2019-06-20T04:48:08.722Z,33.23
2019-06-20T04:50:34.952Z,31.30
2019-06-20T04:53:00.780Z,31.75
2019-06-20T04:55:26.831Z,29.87
2019-06-20T04:57:53.231Z,34.05
2019-06-20T05:00:19.154Z,28.17
2019-06-20T05:02:45.692Z,28.85
2019-06-20T05:05:11.890Z,28.00
2019-06-20T05:07:37.725Z,26.52
2019-06-20T05:10:04.963Z,23.22
2019-06-20T05:12:31.463Z,26.45
2019-06-20T05:14:57.935Z,26.82
2019-06-20T05:17:23.821Z,24.52
2019-06-20T05:19:49.673Z,22.35
2019-06-20T05:22:16.122Z,21.60
2019-06-20T05:24:42.163Z,22.17
2019-06-20T05:27:07.999Z,22.85
2019-06-20T05:29:34.566Z,21.57
2019-06-20T05:32:00.432Z,19.98
2019-06-20T05:34:27.023Z,17.27
2019-06-20T05:36:52.859Z,21.50
2019-06-20T05:39:18.765Z,18.57
2019-06-20T05:41:44.734Z,20.50
2019-06-20T05:44:10.746Z,17.52
2019-06-20T05:46:36.719Z,17.10
2019-06-20T05:49:02.668Z,18.77
2019-06-20T05:51:28.936Z,16.90
2019-06-20T05:53:54.835Z,15.05
2019-06-20T05:56:21.397Z,18.48
2019-06-20T05:58:47.232Z,15.60
2019-06-20T06:01:13.854Z,14.83
2019-06-20T06:03:39.709Z,15.03
2019-06-20T06:06:05.642Z,13.10
2019-06-20T06:08:31.645Z,12.35
2019-06-20T06:10:57.513Z,12.15
2019-06-20T06:13:23.621Z,14.73
2019-06-20T06:15:49.592Z,16.40
2019-06-20T06:18:16.053Z,16.37
2019-06-20T06:20:44.951Z,12.10
2019-06-20T06:23:10.848Z,13.68
2019-06-20T06:25:37.079Z,15.72
2019-06-20T06:28:03.298Z,16.20
2019-06-20T06:30:29.401Z,12.55
2019-06-20T06:32:55.230Z,12.73
2019-06-20T06:35:21.167Z,15.38
2019-06-20T06:37:47.424Z,19.42
2019-06-20T06:40:13.827Z,17.57
2019-06-20T06:42:39.681Z,15.25
2019-06-20T06:45:06.264Z,15.03
2019-06-20T06:47:32.489Z,13.43
2019-06-20T06:49:58.941Z,17.55
2019-06-20T06:52:24.835Z,17.52
2019-06-20T06:54:50.998Z,16.12
2019-06-20T06:57:16.936Z,16.50
2019-06-20T06:59:42.932Z,13.50
2019-06-20T07:02:09.273Z,14.50
2019-06-20T07:04:35.496Z,12.58
2019-06-20T07:07:01.747Z,16.07
2019-06-20T07:09:27.595Z,14.23
2019-06-20T07:11:53.579Z,14.63
2019-06-20T07:14:19.617Z,15.75
2019-06-20T07:16:59.430Z,13.08
2019-06-20T07:19:13.717Z,12.58
2019-06-20T07:21:39.704Z,12.75
2019-06-20T07:24:05.609Z,12.33
2019-06-20T07:26:31.551Z,12.68
2019-06-20T07:28:57.553Z,11.50
2019-06-20T07:31:24.022Z,11.43
2019-06-20T07:33:50.263Z,10.70
2019-06-20T07:36:16.431Z,12.18
2019-06-20T07:38:42.267Z,12.40
2019-06-20T07:41:08.374Z,15.40
2019-06-20T07:43:34.265Z,14.00
2019-06-20T07:46:03.029Z,11.65
2019-06-20T07:48:27.994Z,12.85
2019-06-20T07:50:54.004Z,11.48
2019-06-20T07:53:19.850Z,13.90
2019-06-20T07:55:46.329Z,9.58
2019-06-20T07:58:12.564Z,10.03
2019-06-20T08:00:38.804Z,9.00
2019-06-20T08:03:04.747Z,8.08
2019-06-20T08:05:30.648Z,11.60
2019-06-20T08:07:56.496Z,9.93
2019-06-20T08:10:22.633Z,10.15
2019-06-20T08:12:48.919Z,8.45
2019-06-20T08:15:16.111Z,9.73
2019-06-20T08:17:42.064Z,10.08
2019-06-20T08:20:09.246Z,7.55
2019-06-20T08:22:35.199Z,7.92
2019-06-20T08:25:01.188Z,10.45
2019-06-20T08:27:45.570Z,11.05
2019-06-20T08:30:11.976Z,7.87
2019-06-20T08:32:38.223Z,7.45
2019-06-20T08:35:06.441Z,8.38
2019-06-20T08:37:32.646Z,7.95
2019-06-20T08:39:59.933Z,10.15
2019-06-20T08:42:26.022Z,8.55
2019-06-20T08:44:51.917Z,10.30
2019-06-20T08:47:17.829Z,8.38
2019-06-20T08:49:43.736Z,6.62
2019-06-20T08:52:09.568Z,7.10
2019-06-20T08:54:35.417Z,9.80
2019-06-20T08:57:03.513Z,5.80
2019-06-20T08:59:30.003Z,7.50
2019-06-20T09:01:58.061Z,7.85
2019-06-20T09:04:23.544Z,8.35
2019-06-20T09:06:50.222Z,11.38
2019-06-20T09:09:16.538Z,8.05
2019-06-20T09:11:42.918Z,7.90
2019-06-20T09:14:08.766Z,6.83
2019-06-20T09:16:35.053Z,6.40
2019-06-20T09:19:02.540Z,5.53
2019-06-20T09:21:28.542Z,7.42
2019-06-20T09:23:55.699Z,5.58
2019-06-20T09:26:21.990Z,7.05
2019-06-20T09:28:48.442Z,7.60
2019-06-20T09:31:15.089Z,9.38
2019-06-20T09:33:41.727Z,7.87
2019-06-20T09:36:07.682Z,7.37
2019-06-20T09:38:33.540Z,7.45
2019-06-20T09:40:59.754Z,8.00
2019-06-20T09:43:27.886Z,5.87
2019-06-20T09:45:54.520Z,5.30
2019-06-20T09:48:21.152Z,5.70
2019-06-20T09:50:49.394Z,6.12
2019-06-20T09:53:15.262Z,7.12
2019-06-20T09:55:42.048Z,5.53
2019-06-20T09:58:07.895Z,6.33
2019-06-20T10:00:35.290Z,4.45
2019-06-20T10:03:01.810Z,6.55
2019-06-20T10:05:28.196Z,5.67
2019-06-20T10:07:54.558Z,5.60
2019-06-20T10:10:22.786Z,5.22
2019-06-20T10:12:49.642Z,6.05
2019-06-20T10:15:20.581Z,4.80
2019-06-20T10:17:47.366Z,4.72
2019-06-20T10:20:14.379Z,4.60
2019-06-20T10:22:40.321Z,7.50
2019-06-20T10:25:06.460Z,4.72
2019-06-20T10:27:32.405Z,5.33
2019-06-20T10:30:10.635Z,4.92
2019-06-20T10:32:26.807Z,5.70
2019-06-20T10:34:53.041Z,4.62
2019-06-20T10:37:19.271Z,5.17
2019-06-20T10:39:46.109Z,8.65
2019-06-20T10:42:12.123Z,6.50
2019-06-20T10:44:38.334Z,5.08
2019-06-20T10:47:04.338Z,4.50
2019-06-20T10:49:30.165Z,5.50
2019-06-20T10:51:55.989Z,4.50
2019-06-20T10:54:22.467Z,5.42
2019-06-20T10:56:48.872Z,5.72
2019-06-20T10:59:15.338Z,6.40
2019-06-20T11:01:42.761Z,5.85
2019-06-20T11:04:09.722Z,3.83
2019-06-20T11:06:35.563Z,5.37
2019-06-20T11:09:02.027Z,4.28
2019-06-20T11:11:28.533Z,5.03
2019-06-20T11:13:54.478Z,7.35
2019-06-20T11:16:20.918Z,5.85
2019-06-20T11:18:48.728Z,3.83
2019-06-20T11:21:15.064Z,4.22
2019-06-20T11:23:45.320Z,4.28
2019-06-20T11:26:11.222Z,4.03
2019-06-20T11:28:39.262Z,4.55
2019-06-20T11:31:06.038Z,4.75
2019-06-20T11:33:32.053Z,3.45
2019-06-20T11:35:58.532Z,3.70
2019-06-20T11:38:25.642Z,3.70
2019-06-20T11:40:51.497Z,5.40
2019-06-20T11:43:19.094Z,5.83
2019-06-20T11:45:45.040Z,4.62
2019-06-20T11:48:10.978Z,8.00
2019-06-20T11:50:37.906Z,3.75
2019-06-20T11:53:04.261Z,5.22
2019-06-20T11:55:32.662Z,5.40
2019-06-20T11:57:59.566Z,4.25
2019-06-20T12:00:26.054Z,3.72
2019-06-20T12:02:52.471Z,4.35
2019-06-20T12:05:18.616Z,5.62
2019-06-20T12:07:45.641Z,6.92
2019-06-20T12:10:14.052Z,7.12
2019-06-20T12:12:41.010Z,4.53
2019-06-20T12:15:08.261Z,6.58
2019-06-20T12:17:34.794Z,7.03
2019-06-20T12:20:01.246Z,6.45
2019-06-20T12:22:27.168Z,6.17
2019-06-20T12:24:53.685Z,5.20
2019-06-20T12:27:19.535Z,6.03
2019-06-20T12:29:46.511Z,6.60
2019-06-20T12:32:12.556Z,6.95
2019-06-20T12:34:40.186Z,9.90
2019-06-20T12:37:06.477Z,7.22
2019-06-20T12:39:32.336Z,11.05
2019-06-20T12:41:58.319Z,8.25
2019-06-20T12:44:24.842Z,7.40
2019-06-20T12:46:50.701Z,6.30
2019-06-20T12:49:16.619Z,6.80
2019-06-20T12:51:42.696Z,6.30
2019-06-20T12:54:09.134Z,8.15
2019-06-20T12:56:35.492Z,10.03
2019-06-20T12:59:01.580Z,9.05
2019-06-20T13:01:36.755Z,9.80
2019-06-20T13:03:55.820Z,12.43
2019-06-20T13:06:21.684Z,16.85
2019-06-20T13:08:47.789Z,22.07
2019-06-20T13:11:14.028Z,21.80
2019-06-20T13:13:40.556Z,23.42
2019-06-20T13:16:06.583Z,16.25
2019-06-20T13:18:33.691Z,21.75
2019-06-20T13:20:59.849Z,26.93
2019-06-20T13:23:25.681Z,33.38
2019-06-20T13:25:51.634Z,26.95
2019-06-20T13:28:17.628Z,27.05
2019-06-20T13:30:47.407Z,40.00
2019-06-20T13:33:11.878Z,24.70
2019-06-20T13:35:39.949Z,36.17
2019-06-20T13:38:05.675Z,29.37
2019-06-20T13:40:31.910Z,30.10
2019-06-20T13:42:58.539Z,36.23
2019-06-20T13:45:25.081Z,44.88
2019-06-20T13:47:52.322Z,36.15
2019-06-20T13:50:18.678Z,36.30
2019-06-20T13:52:46.445Z,39.25
2019-06-20T13:55:13.817Z,34.13
2019-06-20T13:57:41.176Z,33.05
2019-06-20T14:00:08.750Z,24.90
2019-06-20T14:02:34.658Z,26.00
2019-06-20T14:05:00.652Z,24.80
2019-06-20T14:07:26.601Z,25.88
2019-06-20T14:09:52.781Z,25.05
2019-06-20T14:12:18.678Z,31.45
2019-06-20T14:14:45.747Z,28.05
2019-06-20T14:17:11.660Z,30.25
2019-06-20T14:19:37.917Z,42.60
2019-06-20T14:22:03.887Z,26.07
2019-06-20T14:24:30.230Z,38.28
2019-06-20T14:26:56.603Z,46.85
2019-06-20T14:29:22.832Z,22.40
2019-06-20T14:31:49.269Z,21.62
2019-06-20T14:34:15.393Z,19.37
2019-06-20T14:36:41.208Z,14.73
2019-06-20T14:39:07.139Z,18.17
2019-06-20T14:41:33.129Z,23.10
2019-06-20T14:43:59.614Z,18.35
2019-06-20T14:46:25.762Z,17.98
2019-06-20T14:48:51.646Z,15.68
2019-06-20T14:51:17.747Z,15.90
2019-06-20T14:53:44.387Z,12.80
2019-06-20T14:56:11.762Z,12.88
2019-06-20T14:58:37.986Z,16.60
2019-06-20T15:01:03.917Z,12.40
2019-06-20T15:03:29.912Z,13.15
2019-06-20T15:05:55.843Z,11.90
2019-06-20T15:08:21.801Z,10.60
2019-06-20T15:10:48.476Z,11.18
2019-06-20T15:13:15.600Z,10.32
2019-06-20T15:15:41.442Z,11.48
2019-06-20T15:18:07.444Z,7.42
2019-06-20T15:20:35.805Z,7.92
2019-06-20T15:23:01.144Z,8.05
2019-06-20T15:25:27.022Z,7.47
2019-06-20T15:27:55.066Z,5.20
2019-06-20T15:30:20.994Z,4.62
2019-06-20T15:33:00.946Z,4.22
2019-06-20T15:35:15.199Z,3.80
2019-06-20T15:37:41.337Z,4.33
2019-06-20T15:40:07.546Z,5.53
2019-06-20T15:42:33.738Z,5.72
2019-06-20T15:44:59.822Z,6.08
2019-06-20T15:47:25.993Z,6.72
2019-06-20T15:49:52.468Z,6.60
2019-06-20T15:52:19.042Z,5.60
2019-06-20T15:54:45.022Z,6.58
2019-06-20T15:57:11.359Z,3.80
2019-06-20T15:59:37.203Z,5.58
2019-06-20T16:02:03.589Z,5.85
2019-06-20T16:04:29.459Z,9.40
2019-06-20T16:06:55.394Z,4.40
2019-06-20T16:09:21.650Z,7.45
2019-06-20T16:11:47.889Z,5.85
2019-06-20T16:14:13.809Z,6.60
2019-06-20T16:16:39.865Z,6.00
2019-06-20T16:19:05.727Z,6.87
2019-06-20T16:21:31.709Z,6.83
2019-06-20T16:23:57.663Z,4.10
2019-06-20T16:26:23.842Z,4.37
2019-06-20T16:28:50.371Z,6.25
2019-06-20T16:31:26.447Z,4.03
2019-06-20T16:33:44.866Z,5.25
2019-06-20T16:36:12.983Z,4.15
2019-06-20T16:38:38.847Z,4.87
2019-06-20T16:41:05.673Z,6.50
2019-06-20T16:43:31.510Z,5.55
2019-06-20T16:45:57.681Z,10.88
2019-06-20T16:48:24.232Z,4.30
2019-06-20T16:50:50.282Z,4.55
2019-06-20T16:53:16.275Z,7.30
2019-06-20T16:55:42.842Z,6.70
2019-06-20T16:58:09.463Z,4.05
2019-06-20T17:00:35.762Z,6.42
2019-06-20T17:03:02.727Z,5.30
2019-06-20T17:05:29.070Z,6.40
2019-06-20T17:07:55.108Z,6.15
2019-06-20T17:10:21.233Z,8.08
2019-06-20T17:12:47.241Z,7.33
2019-06-20T17:15:13.210Z,4.75
2019-06-20T17:17:39.693Z,6.17
2019-06-20T17:20:06.344Z,7.35
2019-06-20T17:22:32.209Z,7.35
2019-06-20T17:24:58.525Z,6.15
2019-06-20T17:27:25.389Z,6.90
2019-06-20T17:29:52.177Z,7.62
2019-06-20T17:32:18.118Z,5.67
2019-06-20T17:34:44.106Z,6.20
2019-06-20T17:37:10.200Z,8.85
2019-06-20T17:39:36.618Z,6.10
2019-06-20T17:42:02.610Z,7.53
2019-06-20T17:44:28.594Z,11.35
2019-06-20T17:46:54.839Z,7.40
2019-06-20T17:49:21.301Z,7.17
2019-06-20T17:51:48.833Z,8.95
2019-06-20T17:54:15.818Z,7.85
2019-06-20T17:56:42.492Z,7.85
2019-06-20T17:59:08.480Z,11.12
2019-06-20T18:01:36.099Z,11.45
2019-06-20T18:04:13.271Z,10.15
2019-06-20T18:06:30.824Z,12.70
2019-06-20T18:08:56.666Z,8.63
2019-06-20T18:11:22.556Z,9.28
2019-06-20T18:13:48.499Z,6.12
2019-06-20T18:16:24.554Z,6.15
2019-06-20T18:18:42.478Z,8.05
2019-06-20T18:21:08.856Z,15.00
2019-06-20T18:23:35.498Z,12.58
2019-06-20T18:26:01.745Z,9.50
2019-06-20T18:28:27.600Z,7.08
2019-06-20T18:30:53.546Z,9.28
2019-06-20T18:33:19.518Z,8.55
2019-06-20T18:35:45.797Z,7.50
2019-06-20T18:38:11.737Z,6.42
2019-06-20T18:40:37.740Z,9.23
2019-06-20T18:43:04.031Z,8.30
2019-06-20T18:45:30.239Z,8.55
2019-06-20T18:47:56.098Z,8.48
2019-06-20T18:50:22.147Z,6.95
2019-06-20T18:52:52.518Z,7.92
2019-06-20T18:55:20.250Z,13.05
2019-06-20T18:57:46.919Z,13.40
2019-06-20T19:00:13.408Z,8.95
2019-06-20T19:02:40.151Z,12.25
2019-06-20T19:05:07.375Z,9.40
2019-06-20T19:07:33.747Z,7.97
2019-06-20T19:09:59.580Z,10.25
2019-06-20T19:12:25.486Z,9.03
2019-06-20T19:14:51.428Z,10.25
2019-06-20T19:17:17.273Z,9.33
2019-06-20T19:19:43.221Z,12.25
2019-06-20T19:22:10.078Z,10.58
2019-06-20T19:24:37.068Z,9.75
2019-06-20T19:27:04.117Z,12.88
2019-06-20T19:29:30.081Z,13.03
2019-06-20T19:31:56.049Z,13.98
2019-06-20T19:34:23.091Z,12.95
2019-06-20T19:36:49.106Z,14.33
2019-06-20T19:39:14.938Z,18.73
2019-06-20T19:41:41.177Z,17.57
2019-06-20T19:44:07.124Z,18.62
2019-06-20T19:46:33.062Z,15.48
2019-06-20T19:48:59.570Z,16.40
2019-06-20T19:51:25.520Z,17.17
2019-06-20T19:53:52.024Z,14.45
2019-06-20T19:56:18.347Z,19.98
2019-06-20T19:58:45.393Z,15.35
2019-06-20T20:01:11.309Z,12.15
2019-06-20T20:03:38.084Z,15.75
2019-06-20T20:06:04.411Z,17.67
2019-06-20T20:08:30.594Z,20.30
2019-06-20T20:10:56.797Z,18.27
2019-06-20T20:13:22.730Z,15.72
2019-06-20T20:15:49.389Z,15.55
2019-06-20T20:18:16.046Z,15.78
2019-06-20T20:20:46.488Z,18.20
2019-06-20T20:23:11.695Z,19.15
2019-06-20T20:25:38.337Z,17.00
2019-06-20T20:28:04.171Z,22.82
2019-06-20T20:30:30.102Z,21.68
2019-06-20T20:32:56.077Z,20.23
2019-06-20T20:35:34.855Z,22.05
2019-06-20T20:37:49.681Z,18.62
2019-06-20T20:40:15.761Z,23.07
2019-06-20T20:42:41.586Z,21.60
2019-06-20T20:45:07.637Z,19.15
2019-06-20T20:47:33.781Z,17.80
2019-06-20T20:49:59.765Z,20.97
2019-06-20T20:52:25.711Z,20.17
2019-06-20T20:54:51.597Z,22.98
2019-06-20T20:57:17.490Z,29.85
2019-06-20T20:59:43.330Z,28.55
2019-06-20T21:02:09.311Z,32.13
2019-06-20T21:04:35.169Z,30.60
2019-06-20T21:07:01.000Z,26.52
2019-06-20T21:09:26.886Z,28.05
2019-06-20T21:11:52.731Z,22.80
2019-06-20T21:14:18.601Z,27.85
2019-06-20T21:16:44.886Z,24.50
2019-06-20T21:19:11.171Z,27.27
2019-06-20T21:21:37.403Z,26.75
2019-06-20T21:24:03.398Z,28.80
2019-06-20T21:26:31.099Z,24.90
2019-06-20T21:28:57.313Z,24.05
2019-06-20T21:31:23.554Z,25.30
2019-06-20T21:33:49.819Z,25.08
2019-06-20T21:36:15.731Z,28.38
2019-06-20T21:38:41.980Z,23.50
2019-06-20T21:41:07.826Z,28.73
2019-06-20T21:43:33.753Z,26.50
2019-06-20T21:45:59.874Z,28.80
2019-06-20T21:48:25.814Z,29.48
2019-06-20T21:50:52.146Z,27.15
2019-06-20T21:53:18.134Z,26.80
2019-06-20T21:55:44.087Z,31.12
2019-06-20T21:58:10.117Z,25.92
2019-06-20T22:00:39.792Z,34.73
2019-06-20T22:03:06.338Z,32.48
2019-06-20T22:05:32.269Z,28.02
2019-06-20T22:07:58.663Z,27.02
2019-06-20T22:10:24.554Z,30.50
2019-06-20T22:12:50.482Z,25.95
2019-06-20T22:15:16.474Z,26.85
2019-06-20T22:17:42.674Z,27.73
2019-06-20T22:20:09.126Z,26.65
2019-06-20T22:22:35.528Z,26.12
2019-06-20T22:25:02.149Z,27.55
2019-06-20T22:27:28.035Z,28.42
2019-06-20T22:29:53.901Z,27.93
2019-06-20T22:32:19.821Z,25.62
2019-06-20T22:34:46.694Z,26.23
2019-06-20T22:37:12.938Z,25.75
2019-06-20T22:39:38.885Z,21.30
2019-06-20T22:42:05.086Z,25.30
2019-06-20T22:44:31.339Z,23.42
2019-06-20T22:46:57.275Z,23.73
2019-06-20T22:49:23.761Z,26.42
2019-06-20T22:51:49.767Z,21.80
2019-06-20T22:54:16.261Z,24.50
2019-06-20T22:56:42.561Z,21.15
2019-06-20T22:59:08.782Z,20.17
2019-06-20T23:01:34.715Z,22.00
2019-06-20T23:04:00.665Z,21.90
2019-06-20T23:06:26.529Z,21.75
2019-06-20T23:08:52.791Z,23.42
2019-06-20T23:11:18.626Z,27.48
2019-06-20T23:13:45.385Z,24.82
2019-06-20T23:16:11.504Z,24.47
2019-06-20T23:18:37.335Z,22.98
2019-06-20T23:21:04.934Z,21.07
2019-06-20T23:23:31.122Z,23.52
2019-06-20T23:25:59.352Z,19.57
2019-06-20T23:28:25.482Z,23.92
2019-06-20T23:30:51.462Z,21.82
2019-06-20T23:33:17.960Z,24.27
2019-06-20T23:35:44.199Z,27.02
2019-06-20T23:38:10.117Z,22.90
2019-06-20T23:40:36.153Z,26.20
2019-06-20T23:43:02.298Z,27.02
2019-06-20T23:45:28.845Z,25.75
2019-06-20T23:47:54.808Z,27.55
2019-06-20T23:50:21.011Z,25.23
2019-06-20T23:52:52.255Z,25.05
2019-06-20T23:55:18.195Z,24.18
2019-06-20T23:57:44.286Z,27.42
